sensor_id;sensor_type;location;lat;lon;timestamp;P1;durP1;ratioP1;P2;durP2;ratioP2
4806;SDS011;2417;52.482;13.432;2023-01-23T00:00:45;25.97;;;15.33;;
4806;SDS011;2417;52.482;13.432;2023-01-23T00:03:14;25.33;;;14.57;;
4806;SDS011;2417;52.482;13.432;2023-01-23T00:05:42;30.60;;;15.30;;
4806;SDS011;2417;52.482;13.432;2023-01-23T00:08:10;25.33;;;15.60;;
4806;SDS011;2417;52.482;13.432;2023-01-23T00:10:38;24.60;;;15.07;;
4806;SDS011;2417;52.482;13.432;2023-01-23T00:13:06;24.27;;;15.07;;
4806;SDS011;2417;52.482;13.432;2023-01-23T00:15:33;24.20;;;14.60;;
4806;SDS011;2417;52.482;13.432;2023-01-23T00:18:06;25.30;;;14.37;;
4806;SDS011;2417;52.482;13.432;2023-01-23T00:20:35;24.77;;;15.00;;
4806;SDS011;2417;52.482;13.432;2023-01-23T00:23:04;30.40;;;15.87;;
4806;SDS011;2417;52.482;13.432;2023-01-23T00:25:35;26.67;;;15.17;;
4806;SDS011;2417;52.482;13.432;2023-01-23T00:28:03;26.07;;;15.40;;
4806;SDS011;2417;52.482;13.432;2023-01-23T00:30:31;27.13;;;14.97;;
4806;SDS011;2417;52.482;13.432;2023-01-23T00:32:59;27.77;;;15.77;;
4806;SDS011;2417;52.482;13.432;2023-01-23T00:35:28;25.87;;;14.97;;
4806;SDS011;2417;52.482;13.432;2023-01-23T00:37:56;26.80;;;14.80;;
4806;SDS011;2417;52.482;13.432;2023-01-23T00:40:24;27.10;;;15.23;;
4806;SDS011;2417;52.482;13.432;2023-01-23T00:42:52;25.57;;;14.97;;
4806;SDS011;2417;52.482;13.432;2023-01-23T00:45:21;23.90;;;14.43;;
4806;SDS011;2417;52.482;13.432;2023-01-23T00:47:49;26.20;;;14.90;;
4806;SDS011;2417;52.482;13.432;2023-01-23T00:50:17;26.50;;;14.97;;
4806;SDS011;2417;52.482;13.432;2023-01-23T00:52:47;26.30;;;14.50;;
4806;SDS011;2417;52.482;13.432;2023-01-23T00:55:15;25.53;;;15.60;;
4806;SDS011;2417;52.482;13.432;2023-01-23T00:57:43;28.80;;;15.60;;
4806;SDS011;2417;52.482;13.432;2023-01-23T01:00:12;28.83;;;16.00;;
4806;SDS011;2417;52.482;13.432;2023-01-23T01:02:39;24.10;;;14.90;;
4806;SDS011;2417;52.482;13.432;2023-01-23T01:05:08;28.33;;;15.50;;
4806;SDS011;2417;52.482;13.432;2023-01-23T01:07:36;25.40;;;15.10;;
4806;SDS011;2417;52.482;13.432;2023-01-23T01:10:06;29.87;;;15.40;;
4806;SDS011;2417;52.482;13.432;2023-01-23T01:12:36;28.00;;;15.37;;
4806;SDS011;2417;52.482;13.432;2023-01-23T01:15:04;26.23;;;15.27;;
4806;SDS011;2417;52.482;13.432;2023-01-23T01:17:33;25.80;;;15.20;;
4806;SDS011;2417;52.482;13.432;2023-01-23T01:20:00;30.03;;;15.97;;
4806;SDS011;2417;52.482;13.432;2023-01-23T01:22:29;26.10;;;15.43;;
4806;SDS011;2417;52.482;13.432;2023-01-23T01:24:56;27.20;;;15.87;;
4806;SDS011;2417;52.482;13.432;2023-01-23T01:27:25;26.40;;;15.10;;
4806;SDS011;2417;52.482;13.432;2023-01-23T01:29:54;27.33;;;16.43;;
4806;SDS011;2417;52.482;13.432;2023-01-23T01:32:22;27.93;;;15.50;;
4806;SDS011;2417;52.482;13.432;2023-01-23T01:34:50;30.63;;;16.43;;
4806;SDS011;2417;52.482;13.432;2023-01-23T01:37:18;25.30;;;14.63;;
4806;SDS011;2417;52.482;13.432;2023-01-23T01:39:48;27.40;;;16.03;;
4806;SDS011;2417;52.482;13.432;2023-01-23T01:42:16;25.70;;;15.10;;
4806;SDS011;2417;52.482;13.432;2023-01-23T01:44:51;27.77;;;15.63;;
4806;SDS011;2417;52.482;13.432;2023-01-23T01:47:20;24.83;;;15.17;;
4806;SDS011;2417;52.482;13.432;2023-01-23T01:49:48;29.40;;;16.53;;
4806;SDS011;2417;52.482;13.432;2023-01-23T01:52:17;25.70;;;14.87;;
4806;SDS011;2417;52.482;13.432;2023-01-23T01:54:47;26.90;;;16.27;;
4806;SDS011;2417;52.482;13.432;2023-01-23T01:57:19;25.90;;;15.10;;
4806;SDS011;2417;52.482;13.432;2023-01-23T01:59:51;29.40;;;15.27;;
4806;SDS011;2417;52.482;13.432;2023-01-23T02:02:21;31.27;;;15.07;;
4806;SDS011;2417;52.482;13.432;2023-01-23T02:04:51;30.90;;;16.67;;
4806;SDS011;2417;52.482;13.432;2023-01-23T02:07:20;25.20;;;14.40;;
4806;SDS011;2417;52.482;13.432;2023-01-23T02:09:48;30.40;;;15.80;;
4806;SDS011;2417;52.482;13.432;2023-01-23T02:12:16;27.33;;;15.87;;
4806;SDS011;2417;52.482;13.432;2023-01-23T02:14:44;26.37;;;15.23;;
4806;SDS011;2417;52.482;13.432;2023-01-23T02:17:14;25.70;;;15.63;;
4806;SDS011;2417;52.482;13.432;2023-01-23T02:19:43;26.43;;;15.20;;
4806;SDS011;2417;52.482;13.432;2023-01-23T02:22:18;26.50;;;15.00;;
4806;SDS011;2417;52.482;13.432;2023-01-23T02:24:50;28.67;;;15.20;;
4806;SDS011;2417;52.482;13.432;2023-01-23T02:27:22;27.97;;;15.60;;
4806;SDS011;2417;52.482;13.432;2023-01-23T02:29:51;24.70;;;15.27;;
4806;SDS011;2417;52.482;13.432;2023-01-23T02:32:24;26.43;;;14.80;;
4806;SDS011;2417;52.482;13.432;2023-01-23T02:34:53;28.10;;;15.80;;
4806;SDS011;2417;52.482;13.432;2023-01-23T02:37:22;25.67;;;14.93;;
4806;SDS011;2417;52.482;13.432;2023-01-23T02:39:51;30.63;;;15.90;;
4806;SDS011;2417;52.482;13.432;2023-01-23T02:42:19;30.00;;;16.80;;
4806;SDS011;2417;52.482;13.432;2023-01-23T02:44:52;27.87;;;15.60;;
4806;SDS011;2417;52.482;13.432;2023-01-23T02:47:21;30.20;;;15.90;;
4806;SDS011;2417;52.482;13.432;2023-01-23T02:49:54;26.97;;;15.03;;
4806;SDS011;2417;52.482;13.432;2023-01-23T02:52:22;27.20;;;15.10;;
4806;SDS011;2417;52.482;13.432;2023-01-23T02:54:50;28.23;;;15.60;;
4806;SDS011;2417;52.482;13.432;2023-01-23T02:57:18;29.70;;;16.60;;
4806;SDS011;2417;52.482;13.432;2023-01-23T02:59:46;31.00;;;15.90;;
4806;SDS011;2417;52.482;13.432;2023-01-23T03:02:35;29.50;;;15.83;;
4806;SDS011;2417;52.482;13.432;2023-01-23T03:05:04;27.53;;;15.33;;
4806;SDS011;2417;52.482;13.432;2023-01-23T03:07:32;29.60;;;16.40;;
4806;SDS011;2417;52.482;13.432;2023-01-23T03:10:02;29.10;;;16.50;;
4806;SDS011;2417;52.482;13.432;2023-01-23T03:12:30;30.90;;;16.37;;
4806;SDS011;2417;52.482;13.432;2023-01-23T03:14:58;30.10;;;15.80;;
4806;SDS011;2417;52.482;13.432;2023-01-23T03:17:26;29.60;;;15.80;;
4806;SDS011;2417;52.482;13.432;2023-01-23T03:19:57;27.80;;;16.40;;
4806;SDS011;2417;52.482;13.432;2023-01-23T03:22:25;29.47;;;16.93;;
4806;SDS011;2417;52.482;13.432;2023-01-23T03:24:53;25.73;;;15.47;;
4806;SDS011;2417;52.482;13.432;2023-01-23T03:27:23;28.17;;;15.93;;
4806;SDS011;2417;52.482;13.432;2023-01-23T03:29:54;29.77;;;15.50;;
4806;SDS011;2417;52.482;13.432;2023-01-23T03:32:42;29.43;;;15.60;;
4806;SDS011;2417;52.482;13.432;2023-01-23T03:35:13;27.53;;;15.33;;
4806;SDS011;2417;52.482;13.432;2023-01-23T03:38:04;28.07;;;15.83;;
4806;SDS011;2417;52.482;13.432;2023-01-23T03:40:32;26.80;;;16.00;;
4806;SDS011;2417;52.482;13.432;2023-01-23T03:43:18;26.40;;;15.30;;
4806;SDS011;2417;52.482;13.432;2023-01-23T03:45:47;25.47;;;15.17;;
4806;SDS011;2417;52.482;13.432;2023-01-23T03:48:16;28.40;;;15.80;;
4806;SDS011;2417;52.482;13.432;2023-01-23T03:50:46;27.07;;;15.47;;
4806;SDS011;2417;52.482;13.432;2023-01-23T03:53:16;27.00;;;16.10;;
4806;SDS011;2417;52.482;13.432;2023-01-23T03:55:44;26.20;;;15.20;;
4806;SDS011;2417;52.482;13.432;2023-01-23T03:58:12;27.40;;;15.97;;
4806;SDS011;2417;52.482;13.432;2023-01-23T04:00:42;29.50;;;15.87;;
4806;SDS011;2417;52.482;13.432;2023-01-23T04:03:11;29.63;;;16.00;;
4806;SDS011;2417;52.482;13.432;2023-01-23T04:05:40;30.60;;;16.47;;
4806;SDS011;2417;52.482;13.432;2023-01-23T04:08:10;28.10;;;16.57;;
4806;SDS011;2417;52.482;13.432;2023-01-23T04:10:38;27.77;;;15.47;;
4806;SDS011;2417;52.482;13.432;2023-01-23T04:13:12;27.17;;;15.17;;
4806;SDS011;2417;52.482;13.432;2023-01-23T04:15:40;27.83;;;15.87;;
4806;SDS011;2417;52.482;13.432;2023-01-23T04:18:08;30.70;;;16.50;;
4806;SDS011;2417;52.482;13.432;2023-01-23T04:20:37;28.17;;;16.30;;
4806;SDS011;2417;52.482;13.432;2023-01-23T04:23:04;26.20;;;15.50;;
4806;SDS011;2417;52.482;13.432;2023-01-23T04:25:34;26.77;;;16.20;;
4806;SDS011;2417;52.482;13.432;2023-01-23T04:28:02;30.93;;;16.40;;
4806;SDS011;2417;52.482;13.432;2023-01-23T04:30:31;28.53;;;16.13;;
4806;SDS011;2417;52.482;13.432;2023-01-23T04:33:04;25.20;;;15.70;;
4806;SDS011;2417;52.482;13.432;2023-01-23T04:35:33;29.13;;;17.00;;
4806;SDS011;2417;52.482;13.432;2023-01-23T04:38:01;30.27;;;16.53;;
4806;SDS011;2417;52.482;13.432;2023-01-23T04:40:29;27.53;;;15.87;;
4806;SDS011;2417;52.482;13.432;2023-01-23T04:42:59;27.07;;;15.40;;
4806;SDS011;2417;52.482;13.432;2023-01-23T04:45:31;28.10;;;16.77;;
4806;SDS011;2417;52.482;13.432;2023-01-23T04:48:11;28.07;;;15.90;;
4806;SDS011;2417;52.482;13.432;2023-01-23T04:50:39;27.47;;;15.47;;
4806;SDS011;2417;52.482;13.432;2023-01-23T04:53:07;27.60;;;15.73;;
4806;SDS011;2417;52.482;13.432;2023-01-23T04:55:35;30.50;;;16.40;;
4806;SDS011;2417;52.482;13.432;2023-01-23T04:58:07;27.10;;;15.60;;
4806;SDS011;2417;52.482;13.432;2023-01-23T05:00:36;28.70;;;16.97;;
4806;SDS011;2417;52.482;13.432;2023-01-23T05:03:05;26.23;;;15.70;;
4806;SDS011;2417;52.482;13.432;2023-01-23T05:05:33;31.60;;;16.10;;
4806;SDS011;2417;52.482;13.432;2023-01-23T05:08:01;29.70;;;16.37;;
4806;SDS011;2417;52.482;13.432;2023-01-23T05:10:29;27.57;;;16.00;;
4806;SDS011;2417;52.482;13.432;2023-01-23T05:13:02;31.30;;;16.93;;
4806;SDS011;2417;52.482;13.432;2023-01-23T05:15:32;29.03;;;17.20;;
4806;SDS011;2417;52.482;13.432;2023-01-23T05:18:00;27.93;;;16.80;;
4806;SDS011;2417;52.482;13.432;2023-01-23T05:20:28;30.43;;;17.10;;
4806;SDS011;2417;52.482;13.432;2023-01-23T05:22:59;28.60;;;16.87;;
4806;SDS011;2417;52.482;13.432;2023-01-23T05:25:38;32.27;;;17.40;;
4806;SDS011;2417;52.482;13.432;2023-01-23T05:28:06;30.30;;;17.47;;
4806;SDS011;2417;52.482;13.432;2023-01-23T05:30:44;28.90;;;16.47;;
4806;SDS011;2417;52.482;13.432;2023-01-23T05:33:30;31.23;;;17.83;;
4806;SDS011;2417;52.482;13.432;2023-01-23T05:35:58;32.33;;;17.90;;
4806;SDS011;2417;52.482;13.432;2023-01-23T05:38:26;28.30;;;16.37;;
4806;SDS011;2417;52.482;13.432;2023-01-23T05:40:53;30.60;;;17.17;;
4806;SDS011;2417;52.482;13.432;2023-01-23T05:43:40;30.40;;;17.10;;
4806;SDS011;2417;52.482;13.432;2023-01-23T05:46:47;27.80;;;16.80;;
4806;SDS011;2417;52.482;13.432;2023-01-23T05:49:16;31.33;;;16.70;;
4806;SDS011;2417;52.482;13.432;2023-01-23T05:51:44;33.00;;;16.87;;
4806;SDS011;2417;52.482;13.432;2023-01-23T05:54:12;29.10;;;16.90;;
4806;SDS011;2417;52.482;13.432;2023-01-23T05:56:43;29.67;;;16.57;;
4806;SDS011;2417;52.482;13.432;2023-01-23T05:59:30;31.57;;;17.97;;
4806;SDS011;2417;52.482;13.432;2023-01-23T06:02:24;31.60;;;18.03;;
4806;SDS011;2417;52.482;13.432;2023-01-23T06:05:10;31.70;;;18.40;;
4806;SDS011;2417;52.482;13.432;2023-01-23T06:07:59;32.50;;;17.43;;
4806;SDS011;2417;52.482;13.432;2023-01-23T06:10:27;29.03;;;16.93;;
4806;SDS011;2417;52.482;13.432;2023-01-23T06:12:55;30.53;;;17.20;;
4806;SDS011;2417;52.482;13.432;2023-01-23T06:15:23;32.00;;;17.27;;
4806;SDS011;2417;52.482;13.432;2023-01-23T06:17:54;31.70;;;17.60;;
4806;SDS011;2417;52.482;13.432;2023-01-23T06:20:23;30.17;;;17.47;;
4806;SDS011;2417;52.482;13.432;2023-01-23T06:22:51;28.17;;;16.47;;
4806;SDS011;2417;52.482;13.432;2023-01-23T06:25:19;30.00;;;17.30;;
4806;SDS011;2417;52.482;13.432;2023-01-23T06:27:51;33.27;;;17.87;;
4806;SDS011;2417;52.482;13.432;2023-01-23T06:30:24;31.77;;;18.77;;
4806;SDS011;2417;52.482;13.432;2023-01-23T06:32:52;29.47;;;17.00;;
4806;SDS011;2417;52.482;13.432;2023-01-23T06:35:27;30.60;;;16.90;;
4806;SDS011;2417;52.482;13.432;2023-01-23T06:37:55;32.83;;;17.40;;
4806;SDS011;2417;52.482;13.432;2023-01-23T06:40:23;30.90;;;17.20;;
4806;SDS011;2417;52.482;13.432;2023-01-23T06:43:10;34.33;;;17.07;;
4806;SDS011;2417;52.482;13.432;2023-01-23T06:45:37;28.43;;;16.60;;
4806;SDS011;2417;52.482;13.432;2023-01-23T06:48:05;34.73;;;18.07;;
4806;SDS011;2417;52.482;13.432;2023-01-23T06:50:38;31.00;;;17.73;;
4806;SDS011;2417;52.482;13.432;2023-01-23T06:53:06;29.23;;;16.50;;
4806;SDS011;2417;52.482;13.432;2023-01-23T06:55:35;28.47;;;16.93;;
4806;SDS011;2417;52.482;13.432;2023-01-23T06:58:03;29.20;;;17.17;;
4806;SDS011;2417;52.482;13.432;2023-01-23T07:00:31;31.20;;;17.20;;
4806;SDS011;2417;52.482;13.432;2023-01-23T07:03:02;30.70;;;17.20;;
4806;SDS011;2417;52.482;13.432;2023-01-23T07:05:31;28.60;;;16.57;;
4806;SDS011;2417;52.482;13.432;2023-01-23T07:08:03;27.13;;;15.73;;
4806;SDS011;2417;52.482;13.432;2023-01-23T07:10:32;28.63;;;16.80;;
4806;SDS011;2417;52.482;13.432;2023-01-23T07:13:00;31.43;;;16.90;;
4806;SDS011;2417;52.482;13.432;2023-01-23T07:15:28;30.70;;;16.90;;
4806;SDS011;2417;52.482;13.432;2023-01-23T07:17:56;29.33;;;16.60;;
4806;SDS011;2417;52.482;13.432;2023-01-23T07:20:24;30.47;;;16.90;;
4806;SDS011;2417;52.482;13.432;2023-01-23T07:22:55;30.70;;;16.90;;
4806;SDS011;2417;52.482;13.432;2023-01-23T07:25:25;32.67;;;17.00;;
4806;SDS011;2417;52.482;13.432;2023-01-23T07:27:53;29.03;;;16.70;;
4806;SDS011;2417;52.482;13.432;2023-01-23T07:30:22;34.60;;;17.23;;
4806;SDS011;2417;52.482;13.432;2023-01-23T07:32:49;29.10;;;16.67;;
4806;SDS011;2417;52.482;13.432;2023-01-23T07:35:17;24.57;;;15.63;;
4806;SDS011;2417;52.482;13.432;2023-01-23T07:37:48;28.07;;;16.30;;
4806;SDS011;2417;52.482;13.432;2023-01-23T07:40:15;28.27;;;16.93;;
4806;SDS011;2417;52.482;13.432;2023-01-23T07:42:45;26.63;;;15.73;;
4806;SDS011;2417;52.482;13.432;2023-01-23T07:45:13;28.00;;;16.17;;
4806;SDS011;2417;52.482;13.432;2023-01-23T07:47:41;27.07;;;16.63;;
4806;SDS011;2417;52.482;13.432;2023-01-23T07:50:11;28.87;;;16.30;;
4806;SDS011;2417;52.482;13.432;2023-01-23T07:52:39;27.93;;;16.97;;
4806;SDS011;2417;52.482;13.432;2023-01-23T07:55:08;28.33;;;16.53;;
4806;SDS011;2417;52.482;13.432;2023-01-23T07:57:35;28.60;;;18.00;;
4806;SDS011;2417;52.482;13.432;2023-01-23T08:00:05;30.40;;;17.70;;
4806;SDS011;2417;52.482;13.432;2023-01-23T08:02:37;30.37;;;17.70;;
4806;SDS011;2417;52.482;13.432;2023-01-23T08:05:06;31.67;;;17.50;;
4806;SDS011;2417;52.482;13.432;2023-01-23T08:07:34;29.00;;;17.97;;
4806;SDS011;2417;52.482;13.432;2023-01-23T08:10:02;29.30;;;17.37;;
4806;SDS011;2417;52.482;13.432;2023-01-23T08:12:29;32.43;;;17.80;;
4806;SDS011;2417;52.482;13.432;2023-01-23T08:14:57;31.50;;;17.97;;
4806;SDS011;2417;52.482;13.432;2023-01-23T08:17:26;28.23;;;16.60;;
4806;SDS011;2417;52.482;13.432;2023-01-23T08:19:54;29.67;;;16.40;;
4806;SDS011;2417;52.482;13.432;2023-01-23T08:22:22;27.97;;;16.33;;
4806;SDS011;2417;52.482;13.432;2023-01-23T08:24:50;32.23;;;16.50;;
4806;SDS011;2417;52.482;13.432;2023-01-23T08:27:18;31.10;;;17.27;;
4806;SDS011;2417;52.482;13.432;2023-01-23T08:29:45;28.20;;;17.13;;
4806;SDS011;2417;52.482;13.432;2023-01-23T08:32:13;32.43;;;17.30;;
4806;SDS011;2417;52.482;13.432;2023-01-23T08:34:43;34.00;;;17.87;;
4806;SDS011;2417;52.482;13.432;2023-01-23T08:37:11;29.43;;;17.50;;
4806;SDS011;2417;52.482;13.432;2023-01-23T08:39:39;33.63;;;18.33;;
4806;SDS011;2417;52.482;13.432;2023-01-23T08:42:08;34.97;;;18.50;;
4806;SDS011;2417;52.482;13.432;2023-01-23T08:44:36;30.73;;;17.73;;
4806;SDS011;2417;52.482;13.432;2023-01-23T08:47:04;32.03;;;17.33;;
4806;SDS011;2417;52.482;13.432;2023-01-23T08:49:32;30.63;;;17.70;;
4806;SDS011;2417;52.482;13.432;2023-01-23T08:52:02;37.27;;;19.03;;
4806;SDS011;2417;52.482;13.432;2023-01-23T08:54:31;30.83;;;18.70;;
4806;SDS011;2417;52.482;13.432;2023-01-23T08:56:59;31.77;;;17.80;;
4806;SDS011;2417;52.482;13.432;2023-01-23T08:59:27;32.50;;;18.47;;
4806;SDS011;2417;52.482;13.432;2023-01-23T09:01:54;29.47;;;17.83;;
4806;SDS011;2417;52.482;13.432;2023-01-23T09:04:23;32.03;;;17.40;;
4806;SDS011;2417;52.482;13.432;2023-01-23T09:06:53;34.73;;;19.40;;
4806;SDS011;2417;52.482;13.432;2023-01-23T09:09:22;31.07;;;18.30;;
4806;SDS011;2417;52.482;13.432;2023-01-23T09:11:50;33.37;;;18.57;;
4806;SDS011;2417;52.482;13.432;2023-01-23T09:14:18;29.67;;;17.80;;
4806;SDS011;2417;52.482;13.432;2023-01-23T09:16:45;34.13;;;18.90;;
4806;SDS011;2417;52.482;13.432;2023-01-23T09:19:13;34.67;;;20.03;;
4806;SDS011;2417;52.482;13.432;2023-01-23T09:21:41;33.30;;;19.90;;
4806;SDS011;2417;52.482;13.432;2023-01-23T09:24:10;31.63;;;18.10;;
4806;SDS011;2417;52.482;13.432;2023-01-23T09:26:39;33.93;;;18.83;;
4806;SDS011;2417;52.482;13.432;2023-01-23T09:29:09;34.60;;;20.37;;
4806;SDS011;2417;52.482;13.432;2023-01-23T09:31:37;31.70;;;17.90;;
4806;SDS011;2417;52.482;13.432;2023-01-23T09:34:05;33.17;;;18.70;;
4806;SDS011;2417;52.482;13.432;2023-01-23T09:36:34;32.97;;;18.70;;
4806;SDS011;2417;52.482;13.432;2023-01-23T09:39:08;40.10;;;22.10;;
4806;SDS011;2417;52.482;13.432;2023-01-23T09:41:36;34.30;;;19.90;;
4806;SDS011;2417;52.482;13.432;2023-01-23T09:44:07;34.13;;;19.90;;
4806;SDS011;2417;52.482;13.432;2023-01-23T09:46:38;32.90;;;19.20;;
4806;SDS011;2417;52.482;13.432;2023-01-23T09:49:08;31.23;;;19.00;;
4806;SDS011;2417;52.482;13.432;2023-01-23T09:51:49;31.33;;;18.00;;
4806;SDS011;2417;52.482;13.432;2023-01-23T09:54:24;30.53;;;17.37;;
4806;SDS011;2417;52.482;13.432;2023-01-23T09:56:55;30.73;;;18.60;;
4806;SDS011;2417;52.482;13.432;2023-01-23T09:59:26;33.07;;;18.53;;
4806;SDS011;2417;52.482;13.432;2023-01-23T10:01:56;29.23;;;16.83;;
4806;SDS011;2417;52.482;13.432;2023-01-23T10:04:23;32.83;;;18.37;;
4806;SDS011;2417;52.482;13.432;2023-01-23T10:06:56;30.97;;;18.33;;
4806;SDS011;2417;52.482;13.432;2023-01-23T10:12:24;31.53;;;18.70;;
4806;SDS011;2417;52.482;13.432;2023-01-23T10:15:02;31.80;;;18.47;;
4806;SDS011;2417;52.482;13.432;2023-01-23T10:17:35;29.37;;;17.50;;
4806;SDS011;2417;52.482;13.432;2023-01-23T10:22:58;31.30;;;18.53;;
4806;SDS011;2417;52.482;13.432;2023-01-23T10:25:30;31.60;;;18.20;;
4806;SDS011;2417;52.482;13.432;2023-01-23T10:28:04;29.60;;;17.33;;
4806;SDS011;2417;52.482;13.432;2023-01-23T10:30:42;29.30;;;18.20;;
4806;SDS011;2417;52.482;13.432;2023-01-23T10:33:14;32.33;;;18.80;;
4806;SDS011;2417;52.482;13.432;2023-01-23T10:35:43;34.63;;;19.10;;
4806;SDS011;2417;52.482;13.432;2023-01-23T10:38:16;30.77;;;18.33;;
4806;SDS011;2417;52.482;13.432;2023-01-23T10:40:49;33.03;;;18.00;;
4806;SDS011;2417;52.482;13.432;2023-01-23T10:43:35;33.70;;;18.57;;
4806;SDS011;2417;52.482;13.432;2023-01-23T10:46:08;32.80;;;19.10;;
4806;SDS011;2417;52.482;13.432;2023-01-23T10:48:38;30.40;;;17.53;;
4806;SDS011;2417;52.482;13.432;2023-01-23T10:53:59;29.67;;;17.60;;
4806;SDS011;2417;52.482;13.432;2023-01-23T10:56:32;31.40;;;19.13;;
4806;SDS011;2417;52.482;13.432;2023-01-23T10:59:00;29.77;;;18.63;;
4806;SDS011;2417;52.482;13.432;2023-01-23T11:01:31;32.63;;;18.17;;
4806;SDS011;2417;52.482;13.432;2023-01-23T11:04:08;34.67;;;19.60;;
4806;SDS011;2417;52.482;13.432;2023-01-23T11:06:36;32.60;;;18.10;;
4806;SDS011;2417;52.482;13.432;2023-01-23T11:09:07;33.00;;;19.17;;
4806;SDS011;2417;52.482;13.432;2023-01-23T11:11:45;32.87;;;18.27;;
4806;SDS011;2417;52.482;13.432;2023-01-23T11:14:25;38.80;;;19.93;;
4806;SDS011;2417;52.482;13.432;2023-01-23T11:16:59;37.47;;;19.07;;
4806;SDS011;2417;52.482;13.432;2023-01-23T11:19:28;34.73;;;19.43;;
4806;SDS011;2417;52.482;13.432;2023-01-23T11:21:58;34.50;;;19.20;;
4806;SDS011;2417;52.482;13.432;2023-01-23T11:24:29;33.77;;;20.00;;
4806;SDS011;2417;52.482;13.432;2023-01-23T11:27:14;37.07;;;20.63;;
4806;SDS011;2417;52.482;13.432;2023-01-23T11:29:48;33.50;;;19.50;;
4806;SDS011;2417;52.482;13.432;2023-01-23T11:32:21;34.77;;;19.67;;
4806;SDS011;2417;52.482;13.432;2023-01-23T11:34:51;35.37;;;19.20;;
4806;SDS011;2417;52.482;13.432;2023-01-23T11:37:21;34.90;;;20.40;;
4806;SDS011;2417;52.482;13.432;2023-01-23T11:39:52;32.83;;;19.03;;
4806;SDS011;2417;52.482;13.432;2023-01-23T11:42:22;36.47;;;19.80;;
4806;SDS011;2417;52.482;13.432;2023-01-23T11:44:54;36.90;;;19.90;;
4806;SDS011;2417;52.482;13.432;2023-01-23T11:47:33;34.50;;;19.37;;
4806;SDS011;2417;52.482;13.432;2023-01-23T11:53:13;34.50;;;19.07;;
4806;SDS011;2417;52.482;13.432;2023-01-23T11:58:45;36.53;;;20.60;;
4806;SDS011;2417;52.482;13.432;2023-01-23T12:01:19;36.63;;;20.30;;
4806;SDS011;2417;52.482;13.432;2023-01-23T12:04:10;33.33;;;19.27;;
4806;SDS011;2417;52.482;13.432;2023-01-23T12:06:43;34.93;;;18.73;;
4806;SDS011;2417;52.482;13.432;2023-01-23T12:09:12;36.13;;;19.43;;
4806;SDS011;2417;52.482;13.432;2023-01-23T12:11:46;34.63;;;18.70;;
4806;SDS011;2417;52.482;13.432;2023-01-23T12:14:19;33.17;;;18.67;;
4806;SDS011;2417;52.482;13.432;2023-01-23T12:16:52;35.10;;;19.50;;
4806;SDS011;2417;52.482;13.432;2023-01-23T12:19:28;32.80;;;18.57;;
4806;SDS011;2417;52.482;13.432;2023-01-23T12:22:03;34.40;;;18.50;;
4806;SDS011;2417;52.482;13.432;2023-01-23T12:24:38;35.13;;;19.10;;
4806;SDS011;2417;52.482;13.432;2023-01-23T12:27:10;34.33;;;19.23;;
4806;SDS011;2417;52.482;13.432;2023-01-23T12:30:01;35.40;;;19.13;;
4806;SDS011;2417;52.482;13.432;2023-01-23T12:32:39;30.27;;;17.20;;
4806;SDS011;2417;52.482;13.432;2023-01-23T12:35:15;30.60;;;16.17;;
4806;SDS011;2417;52.482;13.432;2023-01-23T12:37:49;27.87;;;15.53;;
4806;SDS011;2417;52.482;13.432;2023-01-23T12:40:21;33.90;;;17.77;;
4806;SDS011;2417;52.482;13.432;2023-01-23T12:42:52;32.67;;;16.97;;
4806;SDS011;2417;52.482;13.432;2023-01-23T12:45:22;30.70;;;16.03;;
4806;SDS011;2417;52.482;13.432;2023-01-23T12:47:52;27.93;;;15.20;;
4806;SDS011;2417;52.482;13.432;2023-01-23T12:50:29;39.53;;;20.07;;
4806;SDS011;2417;52.482;13.432;2023-01-23T12:53:00;33.43;;;17.20;;
4806;SDS011;2417;52.482;13.432;2023-01-23T12:55:32;25.50;;;15.40;;
4806;SDS011;2417;52.482;13.432;2023-01-23T12:58:01;25.57;;;14.53;;
4806;SDS011;2417;52.482;13.432;2023-01-23T13:00:53;28.13;;;15.13;;
4806;SDS011;2417;52.482;13.432;2023-01-23T13:03:30;29.63;;;16.90;;
4806;SDS011;2417;52.482;13.432;2023-01-23T13:06:18;27.00;;;14.37;;
4806;SDS011;2417;52.482;13.432;2023-01-23T13:08:49;26.70;;;15.07;;
4806;SDS011;2417;52.482;13.432;2023-01-23T13:11:39;32.30;;;14.50;;
4806;SDS011;2417;52.482;13.432;2023-01-23T13:14:17;25.17;;;14.10;;
4806;SDS011;2417;52.482;13.432;2023-01-23T13:16:48;29.00;;;14.30;;
4806;SDS011;2417;52.482;13.432;2023-01-23T13:19:21;27.50;;;15.50;;
4806;SDS011;2417;52.482;13.432;2023-01-23T13:22:22;28.63;;;14.70;;
4806;SDS011;2417;52.482;13.432;2023-01-23T13:24:59;25.20;;;14.60;;
4806;SDS011;2417;52.482;13.432;2023-01-23T13:27:39;32.03;;;14.60;;
4806;SDS011;2417;52.482;13.432;2023-01-23T13:32:57;23.30;;;13.63;;
4806;SDS011;2417;52.482;13.432;2023-01-23T13:38:32;23.43;;;13.70;;
4806;SDS011;2417;52.482;13.432;2023-01-23T13:43:50;24.33;;;13.00;;
4806;SDS011;2417;52.482;13.432;2023-01-23T13:46:21;24.73;;;13.10;;
4806;SDS011;2417;52.482;13.432;2023-01-23T13:48:53;28.00;;;14.00;;
4806;SDS011;2417;52.482;13.432;2023-01-23T13:51:54;25.63;;;13.30;;
4806;SDS011;2417;52.482;13.432;2023-01-23T13:54:38;23.13;;;12.80;;
4806;SDS011;2417;52.482;13.432;2023-01-23T13:57:38;29.03;;;13.93;;
4806;SDS011;2417;52.482;13.432;2023-01-23T14:00:21;28.53;;;14.83;;
4806;SDS011;2417;52.482;13.432;2023-01-23T14:03:13;23.77;;;13.20;;
4806;SDS011;2417;52.482;13.432;2023-01-23T14:06:14;21.90;;;12.00;;
4806;SDS011;2417;52.482;13.432;2023-01-23T14:17:37;20.67;;;12.00;;
4806;SDS011;2417;52.482;13.432;2023-01-23T14:20:20;21.50;;;12.40;;
4806;SDS011;2417;52.482;13.432;2023-01-23T14:22:52;21.77;;;12.17;;
4806;SDS011;2417;52.482;13.432;2023-01-23T14:25:20;22.87;;;12.03;;
4806;SDS011;2417;52.482;13.432;2023-01-23T14:27:48;19.87;;;11.37;;
4806;SDS011;2417;52.482;13.432;2023-01-23T14:30:28;26.67;;;12.90;;
4806;SDS011;2417;52.482;13.432;2023-01-23T14:32:58;23.20;;;13.27;;
4806;SDS011;2417;52.482;13.432;2023-01-23T14:35:26;21.83;;;12.83;;
4806;SDS011;2417;52.482;13.432;2023-01-23T14:37:55;20.73;;;11.87;;
4806;SDS011;2417;52.482;13.432;2023-01-23T14:40:23;30.83;;;15.60;;
4806;SDS011;2417;52.482;13.432;2023-01-23T14:42:56;29.80;;;15.20;;
4806;SDS011;2417;52.482;13.432;2023-01-23T14:45:27;24.30;;;13.83;;
4806;SDS011;2417;52.482;13.432;2023-01-23T14:48:00;23.63;;;13.63;;
4806;SDS011;2417;52.482;13.432;2023-01-23T14:50:32;28.57;;;15.47;;
4806;SDS011;2417;52.482;13.432;2023-01-23T14:53:01;24.23;;;13.60;;
4806;SDS011;2417;52.482;13.432;2023-01-23T14:55:29;22.33;;;12.93;;
4806;SDS011;2417;52.482;13.432;2023-01-23T14:57:58;23.80;;;13.53;;
4806;SDS011;2417;52.482;13.432;2023-01-23T15:00:26;22.23;;;12.40;;
4806;SDS011;2417;52.482;13.432;2023-01-23T15:02:55;26.03;;;12.93;;
4806;SDS011;2417;52.482;13.432;2023-01-23T15:05:25;22.10;;;12.03;;
4806;SDS011;2417;52.482;13.432;2023-01-23T15:07:54;22.47;;;11.03;;
4806;SDS011;2417;52.482;13.432;2023-01-23T15:10:23;27.73;;;12.03;;
4806;SDS011;2417;52.482;13.432;2023-01-23T15:12:54;20.60;;;11.77;;
4806;SDS011;2417;52.482;13.432;2023-01-23T15:15:24;19.07;;;11.20;;
4806;SDS011;2417;52.482;13.432;2023-01-23T15:17:52;22.23;;;11.40;;
4806;SDS011;2417;52.482;13.432;2023-01-23T15:20:27;21.93;;;11.70;;
4806;SDS011;2417;52.482;13.432;2023-01-23T15:22:55;25.10;;;12.40;;
4806;SDS011;2417;52.482;13.432;2023-01-23T15:25:25;21.03;;;12.17;;
4806;SDS011;2417;52.482;13.432;2023-01-23T15:27:53;24.70;;;12.80;;
4806;SDS011;2417;52.482;13.432;2023-01-23T15:30:35;26.10;;;14.00;;